createdAt,value
2018-11-11T00:01:10.988Z,8.67
2018-11-11T00:03:40.901Z,8.53
2018-11-11T00:06:10.016Z,8.43
2018-11-11T00:08:39.268Z,8.38
2018-11-11T00:11:08.427Z,8.34
2018-11-11T00:13:39.378Z,8.29
2018-11-11T00:16:09.167Z,8.40
2018-11-11T00:18:38.486Z,8.35
2018-11-11T00:21:07.680Z,8.31
2018-11-11T00:23:37.135Z,8.30
2018-11-11T00:26:08.534Z,8.31
2018-11-11T00:28:38.210Z,8.29
2018-11-11T00:31:07.466Z,8.28
2018-11-11T00:33:37.136Z,8.36
2018-11-11T00:36:09.380Z,8.26
2018-11-11T00:38:39.211Z,8.25
2018-11-11T00:41:08.542Z,8.27
2018-11-11T00:43:37.851Z,8.30
2018-11-11T00:46:07.050Z,8.34
2018-11-11T00:48:36.414Z,8.35
2018-11-11T00:51:08.627Z,8.35
2018-11-11T00:53:37.877Z,8.39
2018-11-11T00:56:07.189Z,8.43
2018-11-11T00:58:36.521Z,8.43
2018-11-11T01:01:05.707Z,8.40
2018-11-11T01:03:36.947Z,8.36
2018-11-11T01:06:06.178Z,8.36
2018-11-11T01:08:36.057Z,8.40
2018-11-11T01:11:06.847Z,8.36
2018-11-11T01:13:35.981Z,8.40
2018-11-11T01:16:05.374Z,8.44
2018-11-11T01:18:34.670Z,8.43
2018-11-11T01:21:03.778Z,8.44
2018-11-11T01:23:34.813Z,8.56
2018-11-11T01:26:07.524Z,8.60
2018-11-11T01:28:37.490Z,8.56
2018-11-11T01:31:06.854Z,8.81
2018-11-11T01:33:36.113Z,8.93
2018-11-11T01:36:05.295Z,8.84
2018-11-11T01:38:34.449Z,8.67
2018-11-11T01:41:04.752Z,8.71
2018-11-11T01:43:36.027Z,8.65
2018-11-11T01:46:05.266Z,8.74
2018-11-11T01:48:34.511Z,8.49
2018-11-11T01:51:03.770Z,8.41
2018-11-11T01:53:34.511Z,8.54
2018-11-11T01:56:03.858Z,8.37
2018-11-11T01:58:35.270Z,8.47
2018-11-11T02:01:04.595Z,8.40
2018-11-11T02:03:33.884Z,8.37
2018-11-11T02:06:03.202Z,8.31
2018-11-11T02:08:32.355Z,8.26
2018-11-11T02:11:01.549Z,8.25
2018-11-11T02:13:31.535Z,8.21
2018-11-11T02:16:02.293Z,8.19
2018-11-11T02:18:31.591Z,8.29
2018-11-11T02:21:00.854Z,8.58
2018-11-11T02:23:30.081Z,8.63
2018-11-11T02:25:59.307Z,8.57
2018-11-11T02:28:29.502Z,8.50
2018-11-11T02:31:00.920Z,8.67
2018-11-11T02:33:30.084Z,8.69
2018-11-11T02:35:59.427Z,8.84
2018-11-11T02:38:28.678Z,8.80
2018-11-11T02:40:57.981Z,8.79
2018-11-11T02:43:27.332Z,8.69
2018-11-11T02:45:56.632Z,8.61
2018-11-11T02:48:26.011Z,8.70
2018-11-11T02:50:56.148Z,8.70
2018-11-11T02:53:29.263Z,8.68
2018-11-11T02:55:58.596Z,8.81
2018-11-11T02:58:27.896Z,8.98
2018-11-11T03:00:57.237Z,8.83
2018-11-11T03:03:26.527Z,8.74
2018-11-11T03:05:55.874Z,8.68
2018-11-11T03:08:27.186Z,8.84
2018-11-11T03:10:56.433Z,8.92
2018-11-11T03:13:25.740Z,8.89
2018-11-11T03:15:55.033Z,8.76
2018-11-11T03:18:24.385Z,8.74
2018-11-11T03:20:54.501Z,9.00
2018-11-11T03:23:24.985Z,8.84
2018-11-11T03:25:54.289Z,8.82
2018-11-11T03:28:23.728Z,8.83
2018-11-11T03:30:52.893Z,8.84
2018-11-11T03:33:22.189Z,9.04
2018-11-11T03:35:51.385Z,9.20
2018-11-11T03:38:20.584Z,9.13
2018-11-11T03:40:51.061Z,9.01
2018-11-11T03:43:22.293Z,8.88
2018-11-11T03:45:51.556Z,8.99
2018-11-11T03:48:20.848Z,8.91
2018-11-11T03:50:50.981Z,8.97
2018-11-11T03:53:20.272Z,8.92
2018-11-11T03:55:49.587Z,9.10
2018-11-11T03:58:18.874Z,9.05
2018-11-11T04:00:48.686Z,8.94
2018-11-11T04:03:20.873Z,8.90
2018-11-11T04:05:50.149Z,8.88
2018-11-11T04:08:19.499Z,8.92
2018-11-11T04:10:48.645Z,8.91
2018-11-11T04:13:21.586Z,8.89
2018-11-11T04:15:52.273Z,8.89
2018-11-11T04:18:21.619Z,8.87
2018-11-11T04:20:50.772Z,8.87
2018-11-11T04:23:20.056Z,8.88
2018-11-11T04:25:49.409Z,8.88
2018-11-11T04:28:21.557Z,8.89
2018-11-11T04:30:50.851Z,8.97
2018-11-11T04:33:20.561Z,9.08
2018-11-11T04:35:50.084Z,9.22
2018-11-11T04:38:19.473Z,9.16
2018-11-11T04:40:51.478Z,9.45
2018-11-11T04:43:20.852Z,9.43
2018-11-11T04:45:50.148Z,9.38
2018-11-11T04:48:19.768Z,9.53
2018-11-11T04:50:51.589Z,9.36
2018-11-11T04:53:21.022Z,9.28
2018-11-11T04:55:50.174Z,9.22
2018-11-11T04:58:19.530Z,9.24
2018-11-11T05:00:51.562Z,9.11
2018-11-11T05:03:20.827Z,9.04
2018-11-11T05:05:50.099Z,9.04
2018-11-11T05:08:19.254Z,9.14
2018-11-11T05:10:48.561Z,9.09
2018-11-11T05:13:18.712Z,9.25
2018-11-11T05:15:51.782Z,9.09
2018-11-11T05:18:21.356Z,8.93
2018-11-11T05:20:51.265Z,8.84
2018-11-11T05:23:20.475Z,8.91
2018-11-11T05:25:49.768Z,8.85
2018-11-11T05:28:19.110Z,8.77
2018-11-11T05:30:48.377Z,8.81
2018-11-11T05:33:18.620Z,8.81
2018-11-11T05:35:48.661Z,8.89
2018-11-11T05:38:19.861Z,9.09
2018-11-11T05:40:49.208Z,8.99
2018-11-11T05:43:18.493Z,8.98
2018-11-11T05:45:47.750Z,8.96
2018-11-11T05:48:19.154Z,8.91
2018-11-11T05:50:48.929Z,8.86
2018-11-11T05:53:18.859Z,8.87
2018-11-11T05:55:48.654Z,8.90
2018-11-11T05:58:17.951Z,8.84
2018-11-11T06:00:47.298Z,8.97
2018-11-11T06:03:18.857Z,8.98
2018-11-11T06:05:48.245Z,9.04
2018-11-11T06:08:17.528Z,9.20
2018-11-11T06:10:46.715Z,9.22
2018-11-11T06:13:16.000Z,9.20
2018-11-11T06:15:46.897Z,9.16
2018-11-11T06:18:17.380Z,9.17
2018-11-11T06:20:46.562Z,9.17
2018-11-11T06:23:16.592Z,9.17
2018-11-11T06:25:45.931Z,9.25
2018-11-11T06:28:15.251Z,9.22
2018-11-11T06:30:45.898Z,9.24
2018-11-11T06:33:18.644Z,9.29
2018-11-11T06:35:50.205Z,9.25
2018-11-11T06:38:20.576Z,9.26
2018-11-11T06:40:49.776Z,9.28
2018-11-11T06:43:19.075Z,9.27
2018-11-11T06:45:48.368Z,9.31
2018-11-11T06:48:18.665Z,9.33
2018-11-11T06:50:49.796Z,9.38
2018-11-11T06:53:20.656Z,9.42
2018-11-11T06:55:51.325Z,9.41
2018-11-11T06:58:23.546Z,9.43
2018-11-11T07:00:55.023Z,9.47
2018-11-11T07:04:02.274Z,9.47
2018-11-11T07:06:32.065Z,9.48
2018-11-11T07:09:02.085Z,9.63
2018-11-11T07:11:31.547Z,9.65
2018-11-11T07:14:04.016Z,9.63
2018-11-11T07:16:34.715Z,9.58
2018-11-11T07:19:04.200Z,9.47
2018-11-11T07:21:36.280Z,9.50
2018-11-11T07:24:05.720Z,9.59
2018-11-11T07:26:34.928Z,9.56
2018-11-11T07:29:04.222Z,9.50
2018-11-11T07:31:33.535Z,9.46
2018-11-11T07:34:02.910Z,9.46
2018-11-11T07:36:35.191Z,9.45
2018-11-11T07:39:08.508Z,9.46
2018-11-11T07:41:37.850Z,9.50
2018-11-11T07:44:06.816Z,9.48
2018-11-11T07:46:36.707Z,9.46
2018-11-11T07:49:08.876Z,9.47
2018-11-11T07:51:38.164Z,9.58
2018-11-11T07:54:08.877Z,9.61
2018-11-11T07:56:38.137Z,9.70
2018-11-11T07:59:07.394Z,9.75
2018-11-11T08:02:39.821Z,9.80
2018-11-11T08:05:09.184Z,9.89
2018-11-11T08:07:40.359Z,9.94
2018-11-11T08:10:20.689Z,10.04
2018-11-11T08:12:50.146Z,10.15
2018-11-11T08:15:19.435Z,10.18
2018-11-11T08:17:48.969Z,10.20
2018-11-11T08:20:19.833Z,10.32
2018-11-11T08:22:49.880Z,10.46
2018-11-11T08:25:19.191Z,10.51
2018-11-11T08:27:49.208Z,10.59
2018-11-11T08:30:21.373Z,10.74
2018-11-11T08:32:50.781Z,10.85
2018-11-11T08:35:21.373Z,10.91
2018-11-11T08:37:52.659Z,10.94
2018-11-11T08:40:21.982Z,11.03
2018-11-11T08:42:51.377Z,11.18
2018-11-11T08:45:20.685Z,11.25
2018-11-11T08:47:52.160Z,11.33
2018-11-11T08:50:21.811Z,11.46
2018-11-11T08:52:53.469Z,11.48
2018-11-11T08:55:25.310Z,11.45
2018-11-11T08:57:54.909Z,11.34
2018-11-11T09:00:24.236Z,11.37
2018-11-11T09:02:53.621Z,11.33
2018-11-11T09:05:25.208Z,11.39
2018-11-11T09:07:55.159Z,11.40
2018-11-11T09:10:24.777Z,11.47
2018-11-11T09:12:55.912Z,11.54
2018-11-11T09:15:27.626Z,11.62
2018-11-11T09:17:56.885Z,11.66
2018-11-11T09:20:28.501Z,11.96
2018-11-11T09:23:24.838Z,12.23
2018-11-11T09:28:47.396Z,12.66
2018-11-11T09:31:16.530Z,12.84
2018-11-11T09:33:45.874Z,13.02
2018-11-11T09:36:16.304Z,13.01
2018-11-11T09:38:47.837Z,12.95
2018-11-11T09:41:17.152Z,12.93
2018-11-11T09:43:46.465Z,12.89
2018-11-11T09:46:15.712Z,12.70
2018-11-11T09:48:45.065Z,12.63
2018-11-11T09:51:14.452Z,12.64
2018-11-11T09:53:46.744Z,12.87
2018-11-11T09:56:16.112Z,13.04
2018-11-11T09:58:45.475Z,12.92
2018-11-11T10:01:14.668Z,12.96
2018-11-11T10:03:49.312Z,12.95
2018-11-11T10:06:23.985Z,12.90
2018-11-11T10:08:58.145Z,12.88
2018-11-11T10:11:46.751Z,12.88
2018-11-11T10:15:27.818Z,12.90
2018-11-11T10:18:01.637Z,12.78
2018-11-11T10:20:43.214Z,12.74
2018-11-11T10:23:23.455Z,12.70
2018-11-11T10:25:59.935Z,12.70
2018-11-11T10:29:08.640Z,12.79
2018-11-11T10:31:46.236Z,12.76
2018-11-11T10:34:20.953Z,12.77
2018-11-11T10:36:58.271Z,12.78
2018-11-11T10:41:41.425Z,12.79
2018-11-11T10:44:16.362Z,12.86
2018-11-11T10:46:49.588Z,12.85
2018-11-11T10:49:23.396Z,13.02
2018-11-11T10:51:53.158Z,13.07
2018-11-11T10:54:22.455Z,13.06
2018-11-11T10:56:51.645Z,13.07
2018-11-11T10:59:20.918Z,13.17
2018-11-11T11:01:55.169Z,13.22
2018-11-11T11:04:24.797Z,13.28
2018-11-11T11:06:59.092Z,13.37
2018-11-11T11:09:29.126Z,13.44
2018-11-11T11:12:00.894Z,13.48
2018-11-11T11:14:30.281Z,13.53
2018-11-11T11:16:59.646Z,13.51
2018-11-11T11:19:28.980Z,13.53
2018-11-11T11:21:58.237Z,13.68
2018-11-11T11:24:30.188Z,13.77
2018-11-11T11:26:59.430Z,13.76
2018-11-11T11:29:28.616Z,13.88
2018-11-11T11:31:57.879Z,13.87
2018-11-11T11:34:27.198Z,13.88
2018-11-11T11:36:56.410Z,13.84
2018-11-11T11:39:25.705Z,13.83
2018-11-11T11:41:54.888Z,13.75
2018-11-11T11:44:24.093Z,13.71
2018-11-11T11:48:06.110Z,13.83
2018-11-11T11:50:54.536Z,13.99
2018-11-11T11:53:25.892Z,14.13
2018-11-11T11:55:55.222Z,14.06
2018-11-11T11:58:26.072Z,14.03
2018-11-11T12:00:55.306Z,14.07
2018-11-11T12:03:25.580Z,14.04
2018-11-11T12:05:56.084Z,13.89
2018-11-11T12:08:25.351Z,13.96
2018-11-11T12:10:54.621Z,14.04
2018-11-11T12:13:23.962Z,14.11
2018-11-11T12:15:53.210Z,14.20
2018-11-11T12:18:22.556Z,14.37
2018-11-11T12:20:54.058Z,14.48
2018-11-11T12:23:54.775Z,14.60
2018-11-11T12:26:27.766Z,14.74
2018-11-11T12:28:58.276Z,14.68
2018-11-11T12:31:27.548Z,14.44
2018-11-11T12:33:56.868Z,14.37
2018-11-11T12:36:26.109Z,14.39
2018-11-11T12:38:55.486Z,14.08
2018-11-11T12:41:26.110Z,13.89
2018-11-11T12:43:56.591Z,13.67
2018-11-11T12:46:25.907Z,13.59
2018-11-11T12:48:55.126Z,13.57
2018-11-11T12:51:24.384Z,13.56
2018-11-11T12:53:53.273Z,13.64
2018-11-11T12:56:23.846Z,13.69
2018-11-11T12:58:53.735Z,13.69
2018-11-11T13:01:22.844Z,13.78
2018-11-11T13:03:52.163Z,13.81
2018-11-11T13:06:21.332Z,13.76
2018-11-11T13:08:50.736Z,13.95
2018-11-11T13:11:21.136Z,14.03
2018-11-11T13:13:51.847Z,13.87
2018-11-11T13:16:21.087Z,13.71
2018-11-11T13:18:50.352Z,13.77
2018-11-11T13:21:19.666Z,13.72
2018-11-11T13:23:48.957Z,13.74
2018-11-11T13:26:18.249Z,13.83
2018-11-11T13:28:48.565Z,13.82
2018-11-11T13:31:18.965Z,13.81
2018-11-11T13:33:48.197Z,13.65
2018-11-11T13:36:17.568Z,13.70
2018-11-11T13:38:46.835Z,13.70
2018-11-11T13:41:16.145Z,13.80
2018-11-11T13:43:47.546Z,13.79
2018-11-11T13:46:17.556Z,13.77
2018-11-11T13:48:46.842Z,13.71
2018-11-11T13:51:16.088Z,13.74
2018-11-11T13:53:45.382Z,13.58
2018-11-11T13:56:15.538Z,13.54
2018-11-11T13:58:47.473Z,13.55
2018-11-11T14:01:18.719Z,13.55
2018-11-11T14:03:48.282Z,13.46
2018-11-11T14:06:17.638Z,13.35
2018-11-11T14:08:46.790Z,13.34
2018-11-11T14:11:16.093Z,13.44
2018-11-11T14:13:46.810Z,13.34
2018-11-11T14:16:17.267Z,13.35
2018-11-11T14:18:46.850Z,13.30
2018-11-11T14:21:15.773Z,13.32
2018-11-11T14:23:45.073Z,13.32
2018-11-11T14:26:14.596Z,13.32
2018-11-11T14:28:45.787Z,13.36
2018-11-11T14:31:15.322Z,13.30
2018-11-11T14:33:44.616Z,13.31
2018-11-11T14:36:13.800Z,13.33
2018-11-11T14:38:43.103Z,13.31
2018-11-11T14:41:12.345Z,13.21
2018-11-11T14:43:41.594Z,13.08
2018-11-11T14:46:12.115Z,13.07
2018-11-11T14:48:43.558Z,13.01
2018-11-11T14:51:12.770Z,12.98
2018-11-11T14:53:42.128Z,13.01
2018-11-11T14:56:11.329Z,12.96
2018-11-11T14:58:40.711Z,12.96
2018-11-11T15:01:11.190Z,12.90
2018-11-11T15:03:41.537Z,12.82
2018-11-11T15:06:10.861Z,12.83
2018-11-11T15:08:40.171Z,12.83
2018-11-11T15:11:09.477Z,12.95
2018-11-11T15:13:38.733Z,13.10
2018-11-11T15:16:08.287Z,13.13
2018-11-11T15:18:39.571Z,13.21
2018-11-11T15:21:09.526Z,13.25
2018-11-11T15:23:38.842Z,13.32
2018-11-11T15:26:08.100Z,13.36
2018-11-11T15:28:37.440Z,13.14
2018-11-11T15:31:07.409Z,12.89
2018-11-11T15:33:38.209Z,12.80
2018-11-11T15:36:07.851Z,12.64
2018-11-11T15:38:37.183Z,12.57
2018-11-11T15:41:06.658Z,12.53
2018-11-11T15:43:35.855Z,12.48
2018-11-11T15:46:06.571Z,12.46
2018-11-11T15:48:38.755Z,12.36
2018-11-11T15:51:08.975Z,12.15
2018-11-11T15:53:38.285Z,12.10
2018-11-11T15:56:07.616Z,11.97
2018-11-11T15:58:36.914Z,11.86
2018-11-11T16:01:07.028Z,11.72
2018-11-11T16:03:38.689Z,11.67
2018-11-11T16:06:07.854Z,11.64
2018-11-11T16:08:37.264Z,11.64
2018-11-11T16:11:06.992Z,11.62
2018-11-11T16:13:36.168Z,11.54
2018-11-11T16:16:07.278Z,11.46
2018-11-11T16:18:37.602Z,11.39
2018-11-11T16:21:07.037Z,11.32
2018-11-11T16:23:36.397Z,11.33
2018-11-11T16:26:05.810Z,11.34
2018-11-11T16:28:35.172Z,11.46
2018-11-11T16:31:04.167Z,11.35
2018-11-11T16:33:33.648Z,11.28
2018-11-11T16:36:04.869Z,11.31
2018-11-11T16:38:34.306Z,11.28
2018-11-11T16:41:03.384Z,11.27
2018-11-11T16:43:33.082Z,11.26
2018-11-11T16:46:02.813Z,11.25
2018-11-11T16:48:43.175Z,11.23
2018-11-11T16:51:12.847Z,11.45
2018-11-11T16:53:42.313Z,11.52
2018-11-11T16:56:11.570Z,11.37
2018-11-11T16:58:41.049Z,11.31
2018-11-11T17:01:10.362Z,11.28
2018-11-11T17:03:40.047Z,11.23
2018-11-11T17:06:10.435Z,11.31
2018-11-11T17:08:39.807Z,11.36
2018-11-11T17:11:10.033Z,11.43
2018-11-11T17:13:39.566Z,11.51
2018-11-11T17:16:09.505Z,11.53
2018-11-11T17:18:38.707Z,11.57
2018-11-11T17:21:09.189Z,11.56
2018-11-11T17:23:39.192Z,11.58
2018-11-11T17:26:09.533Z,11.64
2018-11-11T17:28:38.718Z,11.66
2018-11-11T17:31:07.602Z,11.69
2018-11-11T17:33:36.980Z,11.79
2018-11-11T17:36:07.619Z,11.98
2018-11-11T17:38:37.156Z,11.91
2018-11-11T17:41:06.564Z,11.86
2018-11-11T17:43:36.620Z,11.85
2018-11-11T17:46:06.557Z,11.89
2018-11-11T17:48:36.666Z,11.85
2018-11-11T17:51:06.850Z,11.80
2018-11-11T17:53:43.704Z,11.83
2018-11-11T17:56:13.091Z,11.83
2018-11-11T17:58:42.672Z,11.83
2018-11-11T18:01:13.331Z,11.85
2018-11-11T18:03:42.509Z,11.86
2018-11-11T18:06:12.397Z,11.87
2018-11-11T18:08:43.040Z,11.85
2018-11-11T18:11:13.920Z,11.89
2018-11-11T18:13:43.096Z,11.93
2018-11-11T18:16:11.987Z,12.00
2018-11-11T18:18:41.028Z,11.95
2018-11-11T18:21:10.301Z,11.95
2018-11-11T18:23:39.938Z,11.93
2018-11-11T18:26:10.920Z,11.99
2018-11-11T18:28:40.975Z,12.01
2018-11-11T18:31:10.227Z,12.04
2018-11-11T18:33:39.506Z,12.03
2018-11-11T18:36:09.002Z,12.01
2018-11-11T18:38:40.874Z,11.97
2018-11-11T18:41:11.068Z,11.94
2018-11-11T18:43:40.672Z,11.89
2018-11-11T18:46:12.731Z,11.90
2018-11-11T18:48:43.348Z,11.87
2018-11-11T18:51:13.340Z,11.86
2018-11-11T18:53:42.612Z,11.96
2018-11-11T18:56:11.873Z,11.98
2018-11-11T18:58:41.053Z,11.97
2018-11-11T19:01:10.252Z,11.93
2018-11-11T19:03:41.597Z,11.92
2018-11-11T19:06:11.395Z,11.94
2018-11-11T19:08:40.573Z,11.93
2018-11-11T19:11:10.097Z,11.91
2018-11-11T19:13:39.223Z,11.92
2018-11-11T19:16:09.103Z,11.93
2018-11-11T19:18:38.464Z,11.98
2018-11-11T19:21:09.783Z,12.00
2018-11-11T19:23:39.114Z,12.01
2018-11-11T19:26:08.268Z,11.83
2018-11-11T19:28:37.513Z,11.85
2018-11-11T19:31:07.152Z,11.84
2018-11-11T19:33:36.419Z,11.78
2018-11-11T19:36:07.035Z,11.70
2018-11-11T19:38:36.971Z,11.65
2018-11-11T19:41:06.663Z,11.69
2018-11-11T19:43:35.950Z,11.73
2018-11-11T19:46:06.977Z,11.70
2018-11-11T19:48:36.851Z,11.78
2018-11-11T19:51:06.000Z,11.75
2018-11-11T19:53:35.564Z,11.77
2018-11-11T19:56:08.090Z,11.79
2018-11-11T19:58:37.544Z,11.82
2018-11-11T20:01:08.847Z,11.81
2018-11-11T20:03:38.117Z,11.85
2018-11-11T20:06:09.063Z,11.83
2018-11-11T20:08:38.741Z,11.88
2018-11-11T20:11:07.722Z,11.95
2018-11-11T20:13:36.656Z,12.01
2018-11-11T20:16:05.927Z,12.16
2018-11-11T20:18:35.638Z,12.10
2018-11-11T20:21:07.750Z,12.11
2018-11-11T20:23:37.156Z,12.14
2018-11-11T20:26:06.368Z,12.19
2018-11-11T20:28:35.683Z,12.16
2018-11-11T20:31:05.032Z,12.12
2018-11-11T20:33:33.936Z,12.15
2018-11-11T20:36:03.875Z,12.24
2018-11-11T20:38:33.296Z,12.24
2018-11-11T20:41:02.626Z,12.40
2018-11-11T20:43:33.458Z,12.28
2018-11-11T20:46:02.740Z,12.36
2018-11-11T20:48:32.650Z,12.39
2018-11-11T20:51:02.116Z,12.44
2018-11-11T20:53:31.183Z,12.36
2018-11-11T20:56:00.426Z,12.28
2018-11-11T20:58:30.725Z,12.20
2018-11-11T21:00:59.973Z,12.12
2018-11-11T21:03:29.333Z,12.02
2018-11-11T21:06:00.040Z,11.93
2018-11-11T21:08:29.444Z,12.04
2018-11-11T21:10:58.650Z,12.08
2018-11-11T21:13:27.819Z,12.26
2018-11-11T21:15:57.091Z,12.30
2018-11-11T21:18:26.505Z,12.33
2018-11-11T21:20:56.707Z,12.45
2018-11-11T21:23:26.052Z,12.38
2018-11-11T21:25:55.234Z,12.46
2018-11-11T21:28:26.132Z,12.60
2018-11-11T21:30:55.457Z,12.52
2018-11-11T21:33:24.684Z,12.62
2018-11-11T21:35:53.594Z,12.72
2018-11-11T21:38:23.899Z,12.72
2018-11-11T21:40:54.872Z,12.63
2018-11-11T21:43:23.900Z,12.58
2018-11-11T21:45:54.926Z,12.52
2018-11-11T21:48:24.798Z,12.39
2018-11-11T21:50:53.775Z,12.40
2018-11-11T21:53:29.654Z,12.65
2018-11-11T21:55:59.013Z,12.57
2018-11-11T21:58:28.284Z,12.53
2018-11-11T22:00:57.291Z,12.65
2018-11-11T22:03:27.353Z,12.55
2018-11-11T22:05:57.994Z,12.52
2018-11-11T22:08:26.972Z,12.50
2018-11-11T22:10:56.001Z,12.42
2018-11-11T22:13:25.566Z,12.48
2018-11-11T22:19:14.416Z,12.39
2018-11-11T22:21:43.966Z,12.34
2018-11-11T22:24:13.732Z,12.39
2018-11-11T22:26:42.999Z,12.23
2018-11-11T22:29:12.230Z,12.13
2018-11-11T22:31:41.512Z,12.15
2018-11-11T22:34:13.237Z,12.07
2018-11-11T22:36:43.556Z,11.97
2018-11-11T22:39:13.154Z,11.99
2018-11-11T22:41:42.741Z,11.87
2018-11-11T22:44:12.116Z,12.01
2018-11-11T22:46:42.750Z,11.93
2018-11-11T22:49:11.950Z,11.94
2018-11-11T22:51:41.245Z,11.98
2018-11-11T22:54:12.237Z,11.94
2018-11-11T22:56:44.164Z,11.93
2018-11-11T22:59:13.481Z,12.02
2018-11-11T23:01:42.772Z,12.02
2018-11-11T23:04:12.043Z,11.98
2018-11-11T23:06:41.389Z,12.00
2018-11-11T23:09:14.077Z,11.91
2018-11-11T23:11:43.365Z,12.02
2018-11-11T23:14:12.530Z,12.04
2018-11-11T23:16:42.243Z,12.05
2018-11-11T23:19:11.574Z,12.03
2018-11-11T23:21:41.310Z,12.01
2018-11-11T23:24:13.354Z,12.08
2018-11-11T23:26:42.323Z,12.10
2018-11-11T23:29:11.205Z,12.17
2018-11-11T23:31:40.093Z,12.20
2018-11-11T23:34:08.968Z,12.15
2018-11-11T23:36:37.859Z,12.25
2018-11-11T23:39:09.345Z,12.32
2018-11-11T23:41:41.940Z,12.24
2018-11-11T23:44:11.319Z,12.22
2018-11-11T23:46:40.522Z,12.13
2018-11-11T23:49:10.442Z,12.01
2018-11-11T23:51:39.515Z,11.96
2018-11-11T23:54:11.870Z,11.92
2018-11-11T23:56:41.314Z,11.93
2018-11-11T23:59:10.569Z,11.84
